createdAt,value
2023-03-30T00:00:06.113Z,47.42
2023-03-30T00:01:06.397Z,47.42
2023-03-30T00:02:06.127Z,47.52
2023-03-30T00:03:06.353Z,47.42
2023-03-30T00:04:06.274Z,47.52
2023-03-30T00:05:06.303Z,47.42
2023-03-30T00:06:06.199Z,47.42
2023-03-30T00:07:06.172Z,47.42
2023-03-30T00:08:06.188Z,47.42
2023-03-30T00:09:06.241Z,47.42
2023-03-30T00:10:06.227Z,47.42
2023-03-30T00:11:06.614Z,47.42
2023-03-30T00:12:06.266Z,47.42
2023-03-30T00:13:06.338Z,47.42
2023-03-30T00:14:06.308Z,47.42
2023-03-30T00:15:06.315Z,47.42
2023-03-30T00:16:06.374Z,47.42
2023-03-30T00:17:06.343Z,47.42
2023-03-30T00:18:06.386Z,47.42
2023-03-30T00:19:06.364Z,47.42
2023-03-30T00:20:06.390Z,47.42
2023-03-30T00:21:06.650Z,47.52
2023-03-30T00:22:06.413Z,47.42
2023-03-30T00:23:06.385Z,47.42
2023-03-30T00:24:06.410Z,47.32
2023-03-30T00:25:06.423Z,47.42
2023-03-30T00:26:06.453Z,47.52
2023-03-30T00:27:06.478Z,47.42
2023-03-30T00:28:06.475Z,47.42
2023-03-30T00:29:06.492Z,47.32
2023-03-30T00:30:06.508Z,47.42
2023-03-30T00:31:06.702Z,47.42
2023-03-30T00:32:06.527Z,47.42
2023-03-30T00:33:06.539Z,47.42
2023-03-30T00:34:06.512Z,47.42
2023-03-30T00:35:06.495Z,47.42
2023-03-30T00:36:06.540Z,47.42
2023-03-30T00:37:06.530Z,47.32
2023-03-30T00:38:06.566Z,47.32
2023-03-30T00:39:06.550Z,47.32
2023-03-30T00:40:06.530Z,47.42
2023-03-30T00:41:06.690Z,47.42
2023-03-30T00:42:06.557Z,47.42
2023-03-30T00:43:06.566Z,47.42
2023-03-30T00:44:06.585Z,47.42
2023-03-30T00:45:06.621Z,47.42
2023-03-30T00:46:06.720Z,47.42
2023-03-30T00:47:06.669Z,47.42
2023-03-30T00:48:06.737Z,47.42
2023-03-30T00:49:06.693Z,47.42
2023-03-30T00:50:06.728Z,47.42
2023-03-30T00:51:06.971Z,47.42
2023-03-30T00:52:06.755Z,47.42
2023-03-30T00:53:06.769Z,47.42
2023-03-30T00:54:06.839Z,47.42
2023-03-30T00:55:06.822Z,47.42
2023-03-30T00:56:06.798Z,47.32
2023-03-30T00:57:06.852Z,47.32
2023-03-30T00:58:06.814Z,47.32
2023-03-30T00:59:06.838Z,47.32
2023-03-30T01:00:06.899Z,47.32
2023-03-30T01:01:07.295Z,47.42
2023-03-30T01:02:06.886Z,47.32
2023-03-30T01:03:07.153Z,47.32
2023-03-30T01:04:06.952Z,47.32
2023-03-30T01:05:07.000Z,47.32
2023-03-30T01:06:06.973Z,47.32
2023-03-30T01:07:06.949Z,47.32
2023-03-30T01:08:07.039Z,47.32
2023-03-30T01:09:06.972Z,47.32
2023-03-30T01:10:07.013Z,47.32
2023-03-30T01:11:06.975Z,47.22
2023-03-30T01:12:06.994Z,47.32
2023-03-30T01:13:07.030Z,47.32
2023-03-30T01:14:07.025Z,47.22
2023-03-30T01:15:07.043Z,47.32
2023-03-30T01:16:07.141Z,47.22
2023-03-30T01:17:07.077Z,47.22
2023-03-30T01:18:07.154Z,47.22
2023-03-30T01:19:07.124Z,47.22
2023-03-30T01:20:07.161Z,47.22
2023-03-30T01:21:07.130Z,47.22
2023-03-30T01:22:07.143Z,47.12
2023-03-30T01:23:07.156Z,47.12
2023-03-30T01:24:07.180Z,47.12
2023-03-30T01:25:07.206Z,47.22
2023-03-30T01:26:07.208Z,47.22
2023-03-30T01:27:07.181Z,47.22
2023-03-30T01:28:07.213Z,47.12
2023-03-30T01:29:07.200Z,47.02
2023-03-30T01:30:07.248Z,47.02
2023-03-30T01:31:07.443Z,47.02
2023-03-30T01:32:07.290Z,47.02
2023-03-30T01:33:07.571Z,47.02
2023-03-30T01:34:07.295Z,47.02
2023-03-30T01:35:07.345Z,47.02
2023-03-30T01:36:07.447Z,47.02
2023-03-30T01:37:07.360Z,46.92
2023-03-30T01:38:07.375Z,46.81
2023-03-30T01:39:07.396Z,46.92
2023-03-30T01:40:07.425Z,46.92
2023-03-30T01:41:07.440Z,46.92
2023-03-30T01:42:07.470Z,46.92
2023-03-30T01:43:07.437Z,46.81
2023-03-30T01:44:07.457Z,46.81
2023-03-30T01:45:07.490Z,46.81
2023-03-30T01:46:07.468Z,46.81
2023-03-30T01:47:07.492Z,46.81
2023-03-30T01:48:07.559Z,46.81
2023-03-30T01:49:07.545Z,46.72
2023-03-30T01:50:07.583Z,46.72
2023-03-30T01:51:07.587Z,46.61
2023-03-30T01:52:07.628Z,46.72
2023-03-30T01:53:07.596Z,46.72
2023-03-30T01:54:07.624Z,46.72
2023-03-30T01:55:07.655Z,46.72
2023-03-30T01:56:07.631Z,46.72
2023-03-30T01:57:07.773Z,46.72
2023-03-30T01:58:07.716Z,46.72
2023-03-30T01:59:07.710Z,46.72
2023-03-30T02:00:07.710Z,46.72
2023-03-30T02:01:07.753Z,46.72
2023-03-30T02:02:07.819Z,46.72
2023-03-30T02:03:07.858Z,46.72
2023-03-30T02:04:07.935Z,46.72
2023-03-30T02:05:07.763Z,46.72
2023-03-30T02:06:07.756Z,46.72
2023-03-30T02:07:07.782Z,46.72
2023-03-30T02:08:07.807Z,46.81
2023-03-30T02:09:07.834Z,46.81
2023-03-30T02:10:07.864Z,46.72
2023-03-30T02:11:07.872Z,46.72
2023-03-30T02:12:07.886Z,46.81
2023-03-30T02:13:07.910Z,46.81
2023-03-30T02:14:07.960Z,46.72
2023-03-30T02:15:07.945Z,46.72
2023-03-30T02:16:07.954Z,46.81
2023-03-30T02:17:07.905Z,46.81
2023-03-30T02:18:08.025Z,46.84
2023-03-30T02:19:07.928Z,46.84
2023-03-30T02:20:07.957Z,46.81
2023-03-30T02:21:07.953Z,46.94
2023-03-30T02:22:07.973Z,46.84
2023-03-30T02:23:08.002Z,46.81
2023-03-30T02:24:08.022Z,46.72
2023-03-30T02:25:08.045Z,46.81
2023-03-30T02:26:08.289Z,46.72
2023-03-30T02:27:08.072Z,46.72
2023-03-30T02:28:08.088Z,46.72
2023-03-30T02:29:08.072Z,46.81
2023-03-30T02:30:08.120Z,46.81
2023-03-30T02:31:08.102Z,46.94
2023-03-30T02:32:08.281Z,46.94
2023-03-30T02:33:08.310Z,46.94
2023-03-30T02:34:08.132Z,46.94
2023-03-30T02:35:08.173Z,46.92
2023-03-30T02:36:08.208Z,46.81
2023-03-30T02:37:08.168Z,46.92
2023-03-30T02:38:08.193Z,46.92
2023-03-30T02:39:08.176Z,46.94
2023-03-30T02:40:08.206Z,46.92
2023-03-30T02:41:08.215Z,46.92
2023-03-30T02:42:08.208Z,46.94
2023-03-30T02:43:08.244Z,47.02
2023-03-30T02:44:08.231Z,46.92
2023-03-30T02:45:08.250Z,46.92
2023-03-30T02:46:08.311Z,46.92
2023-03-30T02:47:08.230Z,47.02
2023-03-30T02:48:08.325Z,47.02
2023-03-30T02:49:08.251Z,46.92
2023-03-30T02:50:08.292Z,47.02
2023-03-30T02:51:08.313Z,46.92
2023-03-30T02:52:08.345Z,47.04
2023-03-30T02:53:08.363Z,47.02
2023-03-30T02:54:08.393Z,47.02
2023-03-30T02:55:08.397Z,47.02
2023-03-30T02:56:08.410Z,47.02
2023-03-30T02:57:08.462Z,47.02
2023-03-30T02:58:08.455Z,47.02
2023-03-30T02:59:08.465Z,47.02
2023-03-30T03:00:08.480Z,47.02
2023-03-30T03:01:08.722Z,47.02
2023-03-30T03:02:08.620Z,47.02
2023-03-30T03:03:08.643Z,47.02
2023-03-30T03:04:08.517Z,47.02
2023-03-30T03:05:08.532Z,46.92
2023-03-30T03:06:08.543Z,47.02
2023-03-30T03:07:08.581Z,47.02
2023-03-30T03:08:08.600Z,47.12
2023-03-30T03:09:08.602Z,47.22
2023-03-30T03:10:08.641Z,47.22
2023-03-30T03:11:08.652Z,47.12
2023-03-30T03:12:08.674Z,47.22
2023-03-30T03:13:08.703Z,47.22
2023-03-30T03:14:08.704Z,47.22
2023-03-30T03:15:08.730Z,47.22
2023-03-30T03:16:08.743Z,47.22
2023-03-30T03:17:08.803Z,47.32
2023-03-30T03:18:08.881Z,47.32
2023-03-30T03:19:08.811Z,47.22
2023-03-30T03:20:08.803Z,47.32
2023-03-30T03:21:08.830Z,47.42
2023-03-30T03:22:08.855Z,47.42
2023-03-30T03:23:08.876Z,47.22
2023-03-30T03:24:08.908Z,47.42
2023-03-30T03:25:08.903Z,47.42
2023-03-30T03:26:08.930Z,47.42
2023-03-30T03:27:08.906Z,47.32
2023-03-30T03:28:08.920Z,47.32
2023-03-30T03:29:08.938Z,47.42
2023-03-30T03:30:08.949Z,47.42
2023-03-30T03:31:09.101Z,47.42
2023-03-30T03:32:08.989Z,47.42
2023-03-30T03:33:09.028Z,47.32
2023-03-30T03:34:09.069Z,47.42
2023-03-30T03:35:09.067Z,47.42
2023-03-30T03:36:09.132Z,47.52
2023-03-30T03:37:09.095Z,47.52
2023-03-30T03:38:09.152Z,47.52
2023-03-30T03:39:09.128Z,47.52
2023-03-30T03:40:09.155Z,47.52
2023-03-30T03:41:09.202Z,47.62
2023-03-30T03:42:09.184Z,47.62
2023-03-30T03:43:09.306Z,47.52
2023-03-30T03:44:09.237Z,47.62
2023-03-30T03:45:09.270Z,47.52
2023-03-30T03:46:09.277Z,47.62
2023-03-30T03:47:09.288Z,47.62
2023-03-30T03:48:09.316Z,47.62
2023-03-30T03:49:09.310Z,47.62
2023-03-30T03:50:09.342Z,47.52
2023-03-30T03:51:09.291Z,47.52
2023-03-30T03:52:09.271Z,47.42
2023-03-30T03:53:09.292Z,47.52
2023-03-30T03:54:09.310Z,47.42
2023-03-30T03:55:09.337Z,47.52
2023-03-30T03:56:09.366Z,47.42
2023-03-30T03:57:09.477Z,47.42
2023-03-30T03:58:09.396Z,47.42
2023-03-30T03:59:09.384Z,47.52
2023-03-30T04:00:09.428Z,47.52
2023-03-30T04:01:09.639Z,47.52
2023-03-30T04:02:09.500Z,47.52
2023-03-30T04:03:09.535Z,47.42
2023-03-30T04:04:09.485Z,47.52
2023-03-30T04:05:09.447Z,47.42
2023-03-30T04:06:09.498Z,47.52
2023-03-30T04:07:09.476Z,47.52
2023-03-30T04:08:09.500Z,47.62
2023-03-30T04:09:09.532Z,47.62
2023-03-30T04:10:09.508Z,47.72
2023-03-30T04:11:09.520Z,47.82
2023-03-30T04:12:09.530Z,47.82
2023-03-30T04:13:09.553Z,47.82
2023-03-30T04:14:09.568Z,47.90
2023-03-30T04:15:09.612Z,48.02
2023-03-30T04:16:09.650Z,48.02
2023-03-30T04:17:09.621Z,48.02
2023-03-30T04:18:09.717Z,48.12
2023-03-30T04:19:09.651Z,48.12
2023-03-30T04:20:09.685Z,48.12
2023-03-30T04:21:09.689Z,48.10
2023-03-30T04:22:09.746Z,48.12
2023-03-30T04:23:09.782Z,47.82
2023-03-30T04:24:09.753Z,47.82
2023-03-30T04:25:09.777Z,47.82
2023-03-30T04:26:09.754Z,47.82
2023-03-30T04:27:09.769Z,47.92
2023-03-30T04:28:09.774Z,48.02
2023-03-30T04:29:09.787Z,48.02
2023-03-30T04:30:09.842Z,48.02
2023-03-30T04:31:09.821Z,48.12
2023-03-30T04:32:09.863Z,48.20
2023-03-30T04:33:09.981Z,48.20
2023-03-30T04:34:09.877Z,48.20
2023-03-30T04:35:09.915Z,48.10
2023-03-30T04:36:10.001Z,48.10
2023-03-30T04:37:09.938Z,48.00
2023-03-30T04:38:09.985Z,48.00
2023-03-30T04:39:09.956Z,47.90
2023-03-30T04:40:09.975Z,47.80
2023-03-30T04:41:10.000Z,47.70
2023-03-30T04:42:10.035Z,47.60
2023-03-30T04:43:10.076Z,47.60
2023-03-30T04:44:10.053Z,47.50
2023-03-30T04:45:10.103Z,47.50
2023-03-30T04:46:10.110Z,47.39
2023-03-30T04:47:10.080Z,47.60
2023-03-30T04:48:10.246Z,47.70
2023-03-30T04:49:10.116Z,47.60
2023-03-30T04:50:10.144Z,47.80
2023-03-30T04:51:10.159Z,48.00
2023-03-30T04:52:10.170Z,48.10
2023-03-30T04:53:10.198Z,48.10
2023-03-30T04:54:10.439Z,48.10
2023-03-30T04:55:10.282Z,48.00
2023-03-30T04:56:10.271Z,47.80
2023-03-30T04:57:10.312Z,47.70
2023-03-30T04:58:10.304Z,47.60
2023-03-30T04:59:10.321Z,47.60
2023-03-30T05:00:10.345Z,47.50
2023-03-30T05:02:36.370Z,47.50
2023-03-30T05:03:36.327Z,47.39
2023-03-30T05:04:36.319Z,47.47
2023-03-30T05:05:36.300Z,47.80
2023-03-30T05:06:36.305Z,47.77
2023-03-30T05:07:36.326Z,47.90
2023-03-30T05:08:36.304Z,48.00
2023-03-30T05:09:36.356Z,48.10
2023-03-30T05:10:36.332Z,48.10
2023-03-30T05:11:36.346Z,48.10
2023-03-30T05:12:36.367Z,48.10
2023-03-30T05:13:36.379Z,48.10
2023-03-30T05:14:36.389Z,48.10
2023-03-30T05:15:36.412Z,48.20
2023-03-30T05:16:36.453Z,48.30
2023-03-30T05:17:36.447Z,48.70
2023-03-30T05:18:36.462Z,49.01
2023-03-30T05:19:36.460Z,48.80
2023-03-30T05:20:36.482Z,48.60
2023-03-30T05:21:36.506Z,48.40
2023-03-30T05:22:36.557Z,48.30
2023-03-30T05:23:36.539Z,48.40
2023-03-30T05:24:36.546Z,48.40
2023-03-30T05:25:36.589Z,48.30
2023-03-30T05:26:36.603Z,48.30
2023-03-30T05:27:36.569Z,48.30
2023-03-30T05:28:36.577Z,48.30
2023-03-30T05:29:36.546Z,48.30
2023-03-30T05:30:36.578Z,48.30
2023-03-30T05:31:36.618Z,48.50
2023-03-30T05:32:36.672Z,48.60
2023-03-30T05:33:36.651Z,48.70
2023-03-30T05:34:36.631Z,48.70
2023-03-30T05:35:36.679Z,48.80
2023-03-30T05:36:36.660Z,48.80
2023-03-30T05:37:36.693Z,48.80
2023-03-30T05:38:36.708Z,48.70
2023-03-30T05:39:36.749Z,48.70
2023-03-30T05:40:36.726Z,48.70
2023-03-30T05:41:36.769Z,48.58
2023-03-30T05:42:36.739Z,48.58
2023-03-30T05:43:36.763Z,48.58
2023-03-30T05:44:36.792Z,48.68
2023-03-30T05:45:36.816Z,48.58
2023-03-30T05:46:36.886Z,48.68
2023-03-30T05:47:36.844Z,48.68
2023-03-30T05:48:36.799Z,48.68
2023-03-30T05:49:36.786Z,48.68
2023-03-30T05:50:36.821Z,48.68
2023-03-30T05:51:36.844Z,48.68
2023-03-30T05:52:36.879Z,48.68
2023-03-30T05:53:36.864Z,48.58
2023-03-30T05:54:36.892Z,48.58
2023-03-30T05:55:36.923Z,48.48
2023-03-30T05:56:36.959Z,48.48
2023-03-30T05:57:37.019Z,48.48
2023-03-30T05:58:36.958Z,48.58
2023-03-30T05:59:36.984Z,48.58
2023-03-30T06:00:37.031Z,48.68
2023-03-30T06:01:37.012Z,49.08
2023-03-30T06:02:37.131Z,49.08
2023-03-30T06:03:37.159Z,49.05
2023-03-30T06:04:37.104Z,48.98
2023-03-30T06:05:37.081Z,48.98
2023-03-30T06:06:37.111Z,49.16
2023-03-30T06:07:37.145Z,48.96
2023-03-30T06:08:37.127Z,48.96
2023-03-30T06:09:37.113Z,48.86
2023-03-30T06:10:37.141Z,48.86
2023-03-30T06:11:37.161Z,48.86
2023-03-30T06:12:37.200Z,48.86
2023-03-30T06:13:37.216Z,48.86
2023-03-30T06:14:37.194Z,48.86
2023-03-30T06:15:37.228Z,48.96
2023-03-30T06:16:37.252Z,48.96
2023-03-30T06:17:37.308Z,48.86
2023-03-30T06:18:37.217Z,48.86
2023-03-30T06:19:37.244Z,48.86
2023-03-30T06:20:37.264Z,48.86
2023-03-30T06:21:37.301Z,48.86
2023-03-30T06:22:37.349Z,48.86
2023-03-30T06:23:37.329Z,48.96
2023-03-30T06:24:37.322Z,48.96
2023-03-30T06:25:37.362Z,49.05
2023-03-30T06:26:37.351Z,49.16
2023-03-30T06:27:37.488Z,49.16
2023-03-30T06:28:37.394Z,49.16
2023-03-30T06:29:37.450Z,49.16
2023-03-30T06:30:37.440Z,49.16
2023-03-30T06:31:37.462Z,49.26
2023-03-30T06:32:37.448Z,49.36
2023-03-30T06:33:37.887Z,49.36
2023-03-30T06:34:37.399Z,49.36
2023-03-30T06:35:37.424Z,49.36
2023-03-30T06:36:44.919Z,49.36
2023-03-30T06:37:37.386Z,49.46
2023-03-30T06:38:37.369Z,49.56
2023-03-30T06:39:37.385Z,49.56
2023-03-30T06:40:37.389Z,49.66
2023-03-30T06:41:37.371Z,49.86
2023-03-30T06:42:37.405Z,49.86
2023-03-30T06:43:37.385Z,49.86
2023-03-30T06:44:37.423Z,49.86
2023-03-30T06:45:37.573Z,49.96
2023-03-30T06:46:37.444Z,49.96
2023-03-30T06:47:37.521Z,49.96
2023-03-30T06:48:37.469Z,49.96
2023-03-30T06:49:37.491Z,50.06
2023-03-30T06:50:37.498Z,50.06
2023-03-30T06:51:37.535Z,50.16
2023-03-30T06:52:37.610Z,50.16
2023-03-30T06:53:37.563Z,50.26
2023-03-30T06:54:37.619Z,50.36
2023-03-30T06:55:37.624Z,50.46
2023-03-30T06:56:37.617Z,50.46
2023-03-30T06:57:37.771Z,50.56
2023-03-30T06:58:37.611Z,50.76
2023-03-30T06:59:37.640Z,50.76
2023-03-30T07:00:37.656Z,50.96
2023-03-30T07:01:37.723Z,50.96
2023-03-30T07:02:37.691Z,51.06
2023-03-30T07:03:37.660Z,50.84
2023-03-30T07:04:37.830Z,50.84
2023-03-30T07:05:37.687Z,50.74
2023-03-30T07:06:37.730Z,50.74
2023-03-30T07:07:37.720Z,50.84
2023-03-30T07:08:37.752Z,50.84
2023-03-30T07:09:37.710Z,50.84
2023-03-30T07:10:37.720Z,50.94
2023-03-30T07:11:37.708Z,50.94
2023-03-30T07:12:37.736Z,51.04
2023-03-30T07:13:37.782Z,51.04
2023-03-30T07:14:37.819Z,51.14
2023-03-30T07:15:37.805Z,51.14
2023-03-30T07:16:37.923Z,51.14
2023-03-30T07:17:38.096Z,51.24
2023-03-30T07:18:37.873Z,51.34
2023-03-30T07:19:37.904Z,51.44
2023-03-30T07:20:37.891Z,51.44
2023-03-30T07:21:37.913Z,51.54
2023-03-30T07:22:37.963Z,51.54
2023-03-30T07:23:37.903Z,51.64
2023-03-30T07:24:37.931Z,51.74
2023-03-30T07:25:37.956Z,51.74
2023-03-30T07:26:37.947Z,51.84
2023-03-30T07:27:37.967Z,51.84
2023-03-30T07:28:38.003Z,51.94
2023-03-30T07:29:38.040Z,52.44
2023-03-30T07:30:38.030Z,52.55
2023-03-30T07:31:38.141Z,52.34
2023-03-30T07:32:38.152Z,52.44
2023-03-30T07:33:38.237Z,52.64
2023-03-30T07:34:38.129Z,52.55
2023-03-30T07:35:38.181Z,52.44
2023-03-30T07:36:38.118Z,52.44
2023-03-30T07:37:38.146Z,52.34
2023-03-30T07:38:38.170Z,52.24
2023-03-30T07:39:38.207Z,52.24
2023-03-30T07:40:38.296Z,52.24
2023-03-30T07:41:38.203Z,52.34
2023-03-30T07:42:38.233Z,52.34
2023-03-30T07:43:38.277Z,52.44
2023-03-30T07:44:38.261Z,52.55
2023-03-30T07:45:38.355Z,52.55
2023-03-30T07:46:38.298Z,52.64
2023-03-30T07:47:38.291Z,52.64
2023-03-30T07:48:38.333Z,52.64
2023-03-30T07:49:38.348Z,52.64
2023-03-30T07:50:38.351Z,52.75
2023-03-30T07:51:38.322Z,52.75
2023-03-30T07:52:38.328Z,52.64
2023-03-30T07:53:38.332Z,52.64
2023-03-30T07:54:38.333Z,52.64
2023-03-30T07:55:38.310Z,52.55
2023-03-30T07:56:38.297Z,52.55
2023-03-30T07:57:38.329Z,52.64
2023-03-30T07:58:38.384Z,52.64
2023-03-30T07:59:38.366Z,52.75
2023-03-30T08:00:38.388Z,52.75
2023-03-30T08:01:38.409Z,52.75
2023-03-30T08:02:38.436Z,52.62
2023-03-30T08:03:38.649Z,52.62
2023-03-30T08:04:38.565Z,52.52
2023-03-30T08:05:38.596Z,52.52
2023-03-30T08:06:38.476Z,52.52
2023-03-30T08:07:38.512Z,52.32
2023-03-30T08:08:38.502Z,52.32
2023-03-30T08:09:38.541Z,52.32
2023-03-30T08:10:38.516Z,52.32
2023-03-30T08:11:38.540Z,52.32
2023-03-30T08:12:38.568Z,52.19
2023-03-30T08:13:38.613Z,52.09
2023-03-30T08:14:38.635Z,52.09
2023-03-30T08:15:38.682Z,52.19
2023-03-30T08:16:38.786Z,52.29
2023-03-30T08:17:38.667Z,52.29
2023-03-30T08:18:38.696Z,52.29
2023-03-30T08:19:38.675Z,52.42
2023-03-30T08:20:38.701Z,52.29
2023-03-30T08:21:38.748Z,52.29
2023-03-30T08:22:38.735Z,52.29
2023-03-30T08:23:38.768Z,52.29
2023-03-30T08:24:38.756Z,52.29
2023-03-30T08:25:38.800Z,52.29
2023-03-30T08:26:38.800Z,52.39
2023-03-30T08:27:38.877Z,52.39
2023-03-30T08:28:38.846Z,52.39
2023-03-30T08:29:38.865Z,52.39
2023-03-30T08:30:38.910Z,52.59
2023-03-30T08:31:38.910Z,52.69
2023-03-30T08:32:38.923Z,52.72
2023-03-30T08:33:38.884Z,52.82
2023-03-30T08:34:38.921Z,52.82
2023-03-30T08:35:38.942Z,52.92
2023-03-30T08:36:38.933Z,52.92
2023-03-30T08:37:38.985Z,52.92
2023-03-30T08:38:38.966Z,53.02
2023-03-30T08:39:38.987Z,53.12
2023-03-30T08:40:39.006Z,53.12
2023-03-30T08:41:38.990Z,53.02
2023-03-30T08:42:38.988Z,53.12
2023-03-30T08:43:39.015Z,53.12
2023-03-30T08:44:39.061Z,53.12
2023-03-30T08:45:41.059Z,53.22
2023-03-30T08:46:39.037Z,53.22
2023-03-30T08:47:39.119Z,53.22
2023-03-30T08:48:39.086Z,53.19
2023-03-30T08:49:39.074Z,53.19
2023-03-30T08:50:39.096Z,53.19
2023-03-30T08:51:39.126Z,53.19
2023-03-30T08:52:39.175Z,53.19
2023-03-30T08:53:39.197Z,53.30
2023-03-30T08:54:39.183Z,53.30
2023-03-30T08:55:39.206Z,53.39
2023-03-30T08:56:39.237Z,53.39
2023-03-30T08:57:39.231Z,53.39
2023-03-30T08:58:39.259Z,53.30
2023-03-30T08:59:39.279Z,53.30
2023-03-30T09:00:39.303Z,53.19
2023-03-30T09:01:39.374Z,53.09
2023-03-30T09:02:39.398Z,52.87
2023-03-30T09:03:39.375Z,52.67
2023-03-30T09:04:39.388Z,52.57
2023-03-30T09:05:39.367Z,52.34
2023-03-30T09:06:39.409Z,52.24
2023-03-30T09:07:39.386Z,52.14
2023-03-30T09:08:39.407Z,52.14
2023-03-30T09:09:39.472Z,52.14
2023-03-30T09:10:39.465Z,52.04
2023-03-30T09:11:39.476Z,52.04
2023-03-30T09:12:39.492Z,51.94
2023-03-30T09:13:39.489Z,51.92
2023-03-30T09:14:39.473Z,51.92
2023-03-30T09:15:39.546Z,51.92
2023-03-30T09:16:39.591Z,51.92
2023-03-30T09:17:39.571Z,52.04
2023-03-30T09:18:39.569Z,52.04
2023-03-30T09:19:39.574Z,52.14
2023-03-30T09:20:39.550Z,52.14
2023-03-30T09:21:39.577Z,52.14
2023-03-30T09:22:39.600Z,52.02
2023-03-30T09:23:39.592Z,52.22
2023-03-30T09:24:39.612Z,51.92
2023-03-30T09:25:39.686Z,51.72
2023-03-30T09:26:39.623Z,51.72
2023-03-30T09:27:39.693Z,51.52
2023-03-30T09:28:39.663Z,51.62
2023-03-30T09:29:39.676Z,51.72
2023-03-30T09:30:39.678Z,51.82
2023-03-30T09:31:39.722Z,52.19
2023-03-30T09:32:39.751Z,52.09
2023-03-30T09:33:39.740Z,52.09
2023-03-30T09:34:39.777Z,52.49
2023-03-30T09:35:39.867Z,52.29
2023-03-30T09:36:39.820Z,52.27
2023-03-30T09:37:39.817Z,52.47
2023-03-30T09:38:39.856Z,52.97
2023-03-30T09:39:39.887Z,53.19
2023-03-30T09:40:39.908Z,53.39
2023-03-30T09:41:39.968Z,53.69
2023-03-30T09:42:39.937Z,53.79
2023-03-30T09:43:39.973Z,53.89
2023-03-30T09:44:39.989Z,53.99
2023-03-30T09:45:40.036Z,53.89
2023-03-30T09:46:40.146Z,53.77
2023-03-30T09:47:40.012Z,53.77
2023-03-30T09:48:40.010Z,53.57
2023-03-30T09:49:39.994Z,53.57
2023-03-30T09:50:39.979Z,53.67
2023-03-30T09:51:40.005Z,53.47
2023-03-30T09:52:40.047Z,53.57
2023-03-30T09:53:40.055Z,53.57
2023-03-30T09:54:40.047Z,53.59
2023-03-30T09:55:40.074Z,53.89
2023-03-30T09:56:42.045Z,54.10
2023-03-30T09:57:40.124Z,54.29
2023-03-30T09:58:40.115Z,53.89
2023-03-30T09:59:40.136Z,53.89
2023-03-30T10:00:40.175Z,53.69
2023-03-30T10:01:40.176Z,53.47
2023-03-30T10:02:40.235Z,53.07
2023-03-30T10:03:40.318Z,52.77
2023-03-30T10:04:40.244Z,52.64
2023-03-30T10:05:40.224Z,52.44
2023-03-30T10:06:40.346Z,52.34
2023-03-30T10:07:40.283Z,52.14
2023-03-30T10:08:40.211Z,51.92
2023-03-30T10:09:40.261Z,51.82
2023-03-30T10:10:40.276Z,51.82
2023-03-30T10:11:40.230Z,51.72
2023-03-30T10:12:40.249Z,51.72
2023-03-30T10:13:40.309Z,51.72
2023-03-30T10:14:40.310Z,51.72
2023-03-30T10:15:40.437Z,51.72
2023-03-30T10:16:40.347Z,51.72
2023-03-30T10:17:40.423Z,51.62
2023-03-30T10:18:40.353Z,51.52
2023-03-30T10:19:42.362Z,51.42
2023-03-30T10:20:40.398Z,51.42
2023-03-30T10:21:40.404Z,51.62
2023-03-30T10:22:40.387Z,51.72
2023-03-30T10:23:40.413Z,51.72
2023-03-30T10:24:42.647Z,51.82
2023-03-30T10:25:40.481Z,51.82
2023-03-30T10:26:40.508Z,51.82
2023-03-30T10:27:40.531Z,51.82
2023-03-30T10:28:40.546Z,51.82
2023-03-30T10:29:40.613Z,51.72
2023-03-30T10:30:40.560Z,51.70
2023-03-30T10:31:40.620Z,51.70
2023-03-30T10:32:40.669Z,51.79
2023-03-30T10:33:40.610Z,51.70
2023-03-30T10:34:40.654Z,51.70
2023-03-30T10:35:40.672Z,51.59
2023-03-30T10:36:40.663Z,51.50
2023-03-30T10:37:40.684Z,51.40
2023-03-30T10:38:40.734Z,51.40
2023-03-30T10:39:40.750Z,51.29
2023-03-30T10:40:40.755Z,51.29
2023-03-30T10:41:40.749Z,51.29
2023-03-30T10:42:40.786Z,51.20
2023-03-30T10:43:40.770Z,51.10
2023-03-30T10:44:40.785Z,50.99
2023-03-30T10:45:40.807Z,50.99
2023-03-30T10:46:40.859Z,50.90
2023-03-30T10:47:40.842Z,50.90
2023-03-30T10:48:40.824Z,50.79
2023-03-30T10:49:40.827Z,50.79
2023-03-30T10:50:40.819Z,50.70
2023-03-30T10:51:40.802Z,50.70
2023-03-30T10:52:45.906Z,50.70
2023-03-30T10:53:40.846Z,50.70
2023-03-30T10:54:40.867Z,50.70
2023-03-30T10:55:40.868Z,50.70
2023-03-30T10:56:40.876Z,50.90
2023-03-30T10:57:40.885Z,51.12
2023-03-30T10:58:40.868Z,50.92
2023-03-30T10:59:40.903Z,50.82
2023-03-30T11:00:40.958Z,50.82
2023-03-30T11:01:40.977Z,50.90
2023-03-30T11:02:41.038Z,50.79
2023-03-30T11:03:41.053Z,50.70
2023-03-30T11:04:41.005Z,50.40
2023-03-30T11:05:40.996Z,50.30
2023-03-30T11:06:41.035Z,50.30
2023-03-30T11:07:41.059Z,50.40
2023-03-30T11:08:41.084Z,50.40
2023-03-30T11:09:41.115Z,50.40
2023-03-30T11:10:43.931Z,50.40
2023-03-30T11:11:41.103Z,50.20
2023-03-30T11:12:41.079Z,50.20
2023-03-30T11:13:41.092Z,50.00
2023-03-30T11:14:41.105Z,49.90
2023-03-30T11:15:41.109Z,49.77
2023-03-30T11:16:41.114Z,49.57
2023-03-30T11:17:41.158Z,49.48
2023-03-30T11:18:41.182Z,49.25
2023-03-30T11:19:41.110Z,48.95
2023-03-30T11:20:41.158Z,48.95
2023-03-30T11:21:41.141Z,48.95
2023-03-30T11:22:41.166Z,48.95
2023-03-30T11:23:41.195Z,48.85
2023-03-30T11:24:41.228Z,48.75
2023-03-30T11:25:41.271Z,48.85
2023-03-30T11:26:41.256Z,48.65
2023-03-30T11:27:41.242Z,48.65
2023-03-30T11:28:41.275Z,48.55
2023-03-30T11:29:41.261Z,48.46
2023-03-30T11:30:41.302Z,48.23
2023-03-30T11:31:41.337Z,48.13
2023-03-30T11:32:41.364Z,48.03
2023-03-30T11:33:41.773Z,47.83
2023-03-30T11:34:41.349Z,47.83
2023-03-30T11:35:41.392Z,47.63
2023-03-30T11:36:41.369Z,47.53
2023-03-30T11:37:41.404Z,47.53
2023-03-30T11:38:41.390Z,47.74
2023-03-30T11:39:41.371Z,47.74
2023-03-30T11:40:41.390Z,47.44
2023-03-30T11:41:41.411Z,47.33
2023-03-30T11:42:41.444Z,47.63
2023-03-30T11:43:41.472Z,47.75
2023-03-30T11:44:41.452Z,47.66
2023-03-30T11:45:41.503Z,47.75
2023-03-30T11:46:41.580Z,47.96
2023-03-30T11:47:41.571Z,47.96
2023-03-30T11:48:41.560Z,47.74
2023-03-30T11:49:41.580Z,47.63
2023-03-30T11:50:42.422Z,47.63
2023-03-30T11:51:41.566Z,47.53
2023-03-30T11:52:41.627Z,47.53
2023-03-30T11:53:41.604Z,47.44
2023-03-30T11:54:47.067Z,47.53
2023-03-30T11:55:41.636Z,47.75
2023-03-30T11:56:41.692Z,47.86
2023-03-30T11:57:41.648Z,47.88
2023-03-30T11:58:41.671Z,47.88
2023-03-30T11:59:43.340Z,47.98
2023-03-30T12:00:41.724Z,47.88
2023-03-30T12:01:41.721Z,47.66
2023-03-30T12:02:41.793Z,47.36
2023-03-30T12:03:41.894Z,47.26
2023-03-30T12:04:43.970Z,47.45
2023-03-30T12:05:41.765Z,47.45
2023-03-30T12:06:41.754Z,47.45
2023-03-30T12:07:41.756Z,47.66
2023-03-30T12:08:41.743Z,47.66
2023-03-30T12:09:41.766Z,47.58
2023-03-30T12:10:41.813Z,47.68
2023-03-30T12:11:41.830Z,48.00
2023-03-30T12:12:41.831Z,48.20
2023-03-30T12:13:51.321Z,48.10
2023-03-30T12:14:41.834Z,47.98
2023-03-30T12:15:41.820Z,48.08
2023-03-30T12:16:41.900Z,47.78
2023-03-30T12:17:41.879Z,47.48
2023-03-30T12:18:41.851Z,47.48
2023-03-30T12:19:55.117Z,47.68
2023-03-30T12:20:41.834Z,47.68
2023-03-30T12:21:41.891Z,47.78
2023-03-30T12:22:41.884Z,47.78
2023-03-30T12:23:41.868Z,47.58
2023-03-30T12:24:41.891Z,47.36
2023-03-30T12:25:41.915Z,47.16
2023-03-30T12:26:46.916Z,46.94
2023-03-30T12:27:41.963Z,46.94
2023-03-30T12:29:03.328Z,47.14
2023-03-30T12:30:41.949Z,47.44
2023-03-30T12:31:42.010Z,47.66
2023-03-30T12:32:42.023Z,47.96
2023-03-30T12:33:41.964Z,48.16
2023-03-30T12:34:41.997Z,48.13
2023-03-30T12:35:42.010Z,47.63
2023-03-30T12:36:41.970Z,47.74
2023-03-30T12:37:42.027Z,47.74
2023-03-30T12:38:42.033Z,47.63
2023-03-30T12:39:42.012Z,47.74
2023-03-30T12:40:42.041Z,47.74
2023-03-30T12:41:42.084Z,47.74
2023-03-30T12:42:42.072Z,47.83
2023-03-30T12:43:42.113Z,47.74
2023-03-30T12:44:42.131Z,47.83
2023-03-30T12:45:42.187Z,48.03
2023-03-30T12:46:42.394Z,48.16
2023-03-30T12:47:42.294Z,48.35
2023-03-30T12:48:42.201Z,48.35
2023-03-30T12:49:42.228Z,48.25
2023-03-30T12:50:42.262Z,48.16
2023-03-30T12:51:42.252Z,48.25
2023-03-30T12:52:42.236Z,48.16
2023-03-30T12:53:42.289Z,47.96
2023-03-30T12:54:42.276Z,48.03